Time;durP1;ratioP1;P1;durP2;ratioP2;P2;SDS_P1;SDS_P2;PMS_P1;PMS_P2;Temp;Humidity;BMP_temperature;BMP_pressure;BME280_temperature;BME280_humidity;BME280_pressure;Samples;Min_cycle;Max_cycle;Signal;HPM_P1;HPM_P2
2022/09/10 00:01:20;;;;;;;11.18;2.78;;;;;;;16.89;100.00;100621.28;5046814;28;20056;-72
2022/09/10 00:03:48;;;;;;;11.95;4.35;;;;;;;16.93;100.00;100619.16;5045918;28;20869;-72
2022/09/10 00:06:17;;;;;;;11.07;2.90;;;;;;;16.95;100.00;100625.09;5046601;28;20052;-71
2022/09/10 00:08:45;;;;;;;6.80;2.60;;;;;;;16.98;100.00;100621.44;5045148;28;20044;-72
2022/09/10 00:11:13;;;;;;;9.80;2.90;;;;;;;17.00;100.00;100624.53;5038556;28;20048;-72
2022/09/10 00:13:41;;;;;;;9.20;2.53;;;;;;;16.96;100.00;100619.06;5045694;28;20130;-72
2022/09/10 00:16:10;;;;;;;10.80;3.17;;;;;;;17.02;100.00;100624.91;5045896;28;20785;-71
2022/09/10 00:18:39;;;;;;;7.78;2.33;;;;;;;17.01;100.00;100624.09;5047240;28;20182;-72
2022/09/10 00:21:09;;;;;;;6.78;2.83;;;;;;;17.02;100.00;100619.31;5045976;28;20060;-71
2022/09/10 00:23:36;;;;;;;15.52;3.30;;;;;;;17.13;100.00;100628.16;5041125;28;20056;-72
2022/09/10 00:26:13;;;;;;;8.20;2.85;;;;;;;17.05;100.00;100619.19;5045372;28;20467;-71
2022/09/10 00:28:41;;;;;;;10.15;3.33;;;;;;;17.13;100.00;100617.78;5046840;28;20056;-71
2022/09/10 00:31:08;;;;;;;14.02;3.03;;;;;;;17.09;100.00;100621.91;5045128;28;20063;-71
2022/09/10 00:33:34;;;;;;;10.20;3.30;;;;;;;17.11;100.00;100625.03;5047902;28;20147;-70
2022/09/10 00:36:04;;;;;;;11.40;3.35;;;;;;;17.09;100.00;100630.28;5047953;28;20130;-71
2022/09/10 00:38:31;;;;;;;2.35;0.70;;;;;;;16.99;100.00;100620.97;5049581;28;20056;-71
2022/09/10 00:41:03;;;;;;;5.88;2.30;;;;;;;17.08;100.00;100625.94;5046907;28;20429;-71
2022/09/10 00:43:54;;;;;;;8.93;2.72;;;;;;;17.13;100.00;100619.78;5047409;28;20841;-70
2022/09/10 00:46:44;;;;;;;6.43;2.28;;;;;;;17.10;100.00;100624.25;5046380;28;20060;-71
2022/09/10 00:49:20;;;;;;;9.48;2.38;;;;;;;17.11;100.00;100620.22;5046974;28;20943;-71
2022/09/10 00:51:47;;;;;;;;;;;;;;;17.15;100.00;100620.13;5050192;28;20098;-72
2022/09/10 00:54:16;;;;;;;7.00;2.35;;;;;;;17.18;100.00;100619.25;5045783;28;19931;-71
2022/09/10 00:56:44;;;;;;;4.85;1.83;;;;;;;17.14;100.00;100612.94;5048616;28;20044;-71
2022/09/10 00:59:15;;;;;;;6.40;1.95;;;;;;;17.11;100.00;100619.44;5051639;28;20057;-71
2022/09/10 01:01:42;;;;;;;8.82;1.90;;;;;;;17.02;100.00;100622.91;5048783;28;20048;-73
2022/09/10 01:04:09;;;;;;;6.00;1.63;;;;;;;17.05;100.00;100616.41;5049200;28;20231;-72
2022/09/10 01:06:39;;;;;;;3.92;1.38;;;;;;;17.08;100.00;100611.94;5044586;28;20064;-71
2022/09/10 01:09:06;;;;;;;2.33;0.65;;;;;;;17.10;100.00;100615.06;5048671;28;20197;-71
2022/09/10 01:11:56;;;;;;;7.28;1.90;;;;;;;17.13;100.00;100614.97;5050605;28;20065;-72
2022/09/10 01:14:43;;;;;;;0.98;0.57;;;;;;;17.10;100.00;100606.69;5048800;28;20401;-71
2022/09/10 01:17:18;;;;;;;7.75;1.90;;;;;;;17.15;100.00;100618.09;5047257;28;20045;-70
2022/09/10 01:19:44;;;;;;;;;;;;;;;17.08;100.00;100611.94;5051275;28;20110;-71
2022/09/10 01:22:48;;;;;;;7.07;1.85;;;;;;;17.13;100.00;100623.38;5049605;28;19928;-72
2022/09/10 01:25:30;;;;;;;6.95;2.05;;;;;;;17.13;100.00;100614.19;5054260;28;20044;-69
2022/09/10 01:27:59;;;;;;;5.57;0.85;;;;;;;16.98;100.00;100615.84;5069390;28;20048;-70
2022/09/10 01:30:42;;;;;;;3.83;1.15;;;;;;;17.07;100.00;100613.94;5070248;28;20094;-71
2022/09/10 01:33:19;;;;;;;5.65;1.70;;;;;;;17.09;100.00;100619.09;5056034;28;21227;-70
2022/09/10 01:35:51;;;;;;;2.75;1.42;;;;;;;17.05;100.00;100615.63;5069266;28;20060;-70
2022/09/10 01:38:26;;;;;;;8.25;2.13;;;;;;;17.13;100.00;100612.19;5063011;28;20059;-69
2022/09/10 01:40:54;;;;;;;4.60;1.95;;;;;;;17.07;100.00;100613.16;5066408;28;20045;-73
2022/09/10 01:43:21;;;;;;;5.93;1.55;;;;;;;17.04;100.00;100620.44;5067806;28;20040;-71
2022/09/10 01:45:51;;;;;;;7.90;1.95;;;;;;;17.08;100.00;100617.53;5056411;28;20059;-69
2022/09/10 01:48:29;;;;;;;6.97;2.00;;;;;;;17.04;100.00;100619.66;5069753;28;20055;-70
2022/09/10 01:51:33;;;;;;;2.42;1.63;;;;;;;17.02;100.00;100613.72;5062391;28;20040;-68
2022/09/10 01:54:18;;;;;;;6.78;1.98;;;;;;;17.15;100.00;100608.94;5033396;28;20051;-70
2022/09/10 01:56:59;;;;;;;2.85;1.52;;;;;;;17.12;100.00;100613.41;5068658;28;20053;-73
2022/09/10 01:59:56;;;;;;;7.63;2.05;;;;;;;17.07;100.00;100615.94;5065616;28;20047;-71
2022/09/10 02:02:27;;;;;;;7.03;1.75;;;;;;;17.03;100.00;100616.06;5057304;28;20053;-70
2022/09/10 02:04:55;;;;;;;5.43;2.00;;;;;;;17.07;100.00;100607.56;5067157;28;20083;-71
2022/09/10 02:07:25;;;;;;;3.40;1.70;;;;;;;17.03;100.00;100610.47;5062100;28;20053;-73
2022/09/10 02:09:53;;;;;;;5.75;2.03;;;;;;;17.01;100.00;100609.38;5059963;28;20075;-70
2022/09/10 02:12:21;;;;;;;6.70;1.67;;;;;;;17.01;100.00;100614.94;5063353;28;20048;-70
2022/09/10 02:14:49;;;;;;;4.03;1.85;;;;;;;16.99;100.00;100612.59;5055999;28;20044;-73
2022/09/10 02:17:17;;;;;;;8.48;2.30;;;;;;;17.01;100.00;100612.16;5061551;28;20049;-70
2022/09/10 02:19:46;;;;;;;8.15;2.38;;;;;;;17.00;100.00;100616.16;5068561;28;20560;-72
2022/09/10 02:22:14;;;;;;;10.60;2.40;;;;;;;17.02;100.00;100617.31;5063624;28;20041;-72
2022/09/10 02:24:43;;;;;;;6.00;1.58;;;;;;;16.93;100.00;100619.16;5064255;28;20048;-72
2022/09/10 02:27:13;;;;;;;7.97;2.20;;;;;;;16.99;100.00;100617.41;5053776;28;20055;-72
2022/09/10 02:29:40;;;;;;;6.65;1.55;;;;;;;16.96;100.00;100615.47;5065174;28;20471;-71
2022/09/10 02:32:07;;;;;;;9.32;1.80;;;;;;;17.05;100.00;100624.00;5060526;28;20057;-71
2022/09/10 02:34:35;;;;;;;7.93;2.08;;;;;;;17.04;100.00;100626.00;5068318;28;20048;-69
2022/09/10 02:37:02;;;;;;;10.32;2.22;;;;;;;16.98;100.00;100621.44;5063959;28;20118;-71
2022/09/10 02:39:29;;;;;;;13.57;2.63;;;;;;;17.06;100.00;100628.38;5063634;28;20049;-71
2022/09/10 02:41:57;;;;;;;5.25;1.77;;;;;;;17.03;100.00;100620.88;5065448;28;20056;-70
2022/09/10 02:44:26;;;;;;;8.40;2.17;;;;;;;17.12;100.00;100615.41;5061114;28;20098;-68
2022/09/10 02:46:53;;;;;;;13.32;3.88;;;;;;;17.08;100.00;100623.13;5064233;28;20425;-71
2022/09/10 02:49:20;;;;;;;5.78;1.98;;;;;;;17.05;100.00;100618.44;5057062;28;20052;-72
2022/09/10 02:51:49;;;;;;;0.55;0.52;;;;;;;16.99;100.00;100618.19;5067118;28;20048;-70
2022/09/10 02:54:15;;;;;;;9.60;2.10;;;;;;;17.06;100.00;100614.41;5059500;28;20048;-72
2022/09/10 02:56:42;;;;;;;5.15;1.73;;;;;;;17.01;100.00;100618.50;5062642;28;20049;-71
2022/09/10 02:59:08;;;;;;;6.47;2.08;;;;;;;17.03;100.00;100624.47;5057982;28;20049;-69
2022/09/10 03:01:35;;;;;;;4.93;2.22;;;;;;;17.04;100.00;100616.88;5059298;28;20543;-72
2022/09/10 03:04:02;;;;;;;5.40;1.80;;;;;;;17.05;100.00;100612.84;5064880;28;20061;-71
2022/09/10 03:06:28;;;;;;;7.07;1.90;;;;;;;17.08;100.00;100611.94;5061954;28;20102;-71
2022/09/10 03:08:56;;;;;;;2.92;1.70;;;;;;;17.03;100.00;100612.47;5066569;28;20599;-71
2022/09/10 03:11:24;;;;;;;4.35;1.95;;;;;;;17.04;100.00;100625.25;5062526;28;20460;-71
2022/09/10 03:13:50;;;;;;;8.85;2.10;;;;;;;16.89;100.00;100621.28;5059354;28;20055;-72
2022/09/10 03:16:18;;;;;;;6.00;1.45;;;;;;;16.65;100.00;100626.34;5057681;28;20052;-69
2022/09/10 03:18:45;;;;;;;14.00;3.35;;;;;;;16.57;100.00;100613.78;5062927;28;20851;-72
2022/09/10 03:21:19;;;;;;;11.00;2.90;;;;;;;16.41;100.00;100622.19;5055086;28;20101;-71
2022/09/10 03:23:48;;;;;;;9.73;2.80;;;;;;;16.35;100.00;100620.34;5062803;28;20655;-71
2022/09/10 03:26:16;;;;;;;10.65;2.75;;;;;;;16.27;100.00;100616.16;5057149;28;20181;-72
2022/09/10 03:28:43;;;;;;;7.18;2.65;;;;;;;16.25;100.00;100619.41;5060285;28;20152;-71
2022/09/10 03:31:10;;;;;;;11.35;3.05;;;;;;;16.23;100.00;100621.06;5056515;28;20451;-71
2022/09/10 03:33:37;;;;;;;11.25;3.33;;;;;;;16.21;100.00;100615.91;5059526;28;20041;-72
2022/09/10 03:36:04;;;;;;;12.23;3.63;;;;;;;16.19;100.00;100618.34;5061184;28;20057;-72
2022/09/10 03:38:31;;;;;;;10.57;3.58;;;;;;;16.29;100.00;100622.09;5067455;28;20129;-71
2022/09/10 03:40:57;;;;;;;11.25;3.85;;;;;;;16.32;100.00;100615.63;5062936;28;20049;-72
2022/09/10 03:43:24;;;;;;;10.05;3.47;;;;;;;16.33;100.00;100615.19;5057717;28;20041;-71
2022/09/10 03:45:51;;;;;;;22.05;4.70;;;;;;;16.35;100.00;100614.75;5060908;28;20071;-71
2022/09/10 03:48:19;;;;;;;12.63;3.83;;;;;;;16.33;100.00;100617.22;5065880;28;20044;-72
2022/09/10 03:50:46;;;;;;;10.55;4.07;;;;;;;16.36;100.00;100617.09;5063217;28;20048;-71
2022/09/10 03:53:14;;;;;;;17.90;5.13;;;;;;;16.35;100.00;100617.53;5066350;28;20048;-71
2022/09/10 03:55:46;;;;;;;15.75;4.85;;;;;;;16.36;100.00;100624.69;5054626;28;20700;-72
2022/09/10 03:58:13;;;;;;;12.00;4.00;;;;;;;16.33;100.00;100623.56;5056559;28;20057;-71
2022/09/10 04:00:39;;;;;;;13.63;4.15;;;;;;;16.31;100.00;100628.81;5056419;28;20060;-71
2022/09/10 04:03:06;;;;;;;15.15;4.72;;;;;;;16.34;100.00;100627.16;5055467;28;20492;-72
2022/09/10 04:05:33;;;;;;;13.48;4.85;;;;;;;16.34;100.00;100619.56;5066070;28;20083;-72
2022/09/10 04:08:01;;;;;;;11.27;4.78;;;;;;;16.28;100.00;100623.31;5066892;28;20055;-72
2022/09/10 04:10:29;;;;;;;14.68;5.05;;;;;;;16.25;100.00;100621.41;5059543;28;20043;-72
2022/09/10 04:12:56;;;;;;;9.93;3.78;;;;;;;16.24;100.00;100617.03;5053612;28;20099;-72
2022/09/10 04:15:23;;;;;;;11.75;5.05;;;;;;;16.28;100.00;100620.53;5062256;28;20501;-72
2022/09/10 04:17:50;;;;;;;13.57;4.38;;;;;;;16.25;100.00;100626.97;5052946;28;20040;-72
2022/09/10 04:20:18;;;;;;;8.95;3.72;;;;;;;16.26;100.00;100618.16;5059593;28;20432;-72
2022/09/10 04:22:46;;;;;;;10.05;4.53;;;;;;;16.30;100.00;100618.84;5055214;28;20068;-72
2022/09/10 04:25:14;;;;;;;12.77;4.93;;;;;;;16.26;100.00;100614.59;5062734;28;20367;-73
2022/09/10 04:27:41;;;;;;;10.95;4.57;;;;;;;16.24;100.00;100615.03;5055683;28;20045;-72
2022/09/10 04:30:09;;;;;;;12.68;5.35;;;;;;;16.27;100.00;100614.16;5056151;28;20044;-72
2022/09/10 04:32:36;;;;;;;12.07;5.32;;;;;;;16.25;100.00;100615.81;5055544;28;20045;-72
2022/09/10 04:35:04;;;;;;;17.13;6.03;;;;;;;16.27;100.00;100618.97;5062793;28;20063;-72
2022/09/10 04:37:30;;;;;;;18.40;6.43;;;;;;;16.24;100.00;100617.03;5056327;28;20049;-72
2022/09/10 04:39:57;;;;;;;15.45;6.55;;;;;;;16.24;100.00;100615.03;5059928;28;20105;-72
2022/09/10 04:42:23;;;;;;;16.88;6.35;;;;;;;16.28;100.00;100626.91;5057680;28;20044;-72
2022/09/10 04:44:50;;;;;;;15.30;5.75;;;;;;;16.23;100.00;100621.84;5066017;28;20037;-72
2022/09/10 04:47:17;;;;;;;17.73;6.30;;;;;;;16.26;100.00;100622.97;5065516;28;20051;-72
2022/09/10 04:49:43;;;;;;;18.25;5.97;;;;;;;16.27;100.00;100627.34;5066261;28;20110;-72
2022/09/10 04:52:10;;;;;;;16.55;6.18;;;;;;;16.28;100.00;100624.09;5052893;28;20059;-72
2022/09/10 04:54:37;;;;;;;18.38;7.05;;;;;;;16.31;100.00;100630.81;5064075;28;20048;-71
2022/09/10 04:57:05;;;;;;;15.77;6.95;;;;;;;16.33;100.00;100636.75;5052475;28;20040;-71
2022/09/10 04:59:32;;;;;;;17.92;7.45;;;;;;;16.33;100.00;100628.38;5063648;28;20555;-70
2022/09/10 05:01:58;;;;;;;18.60;7.30;;;;;;;16.35;100.00;100643.47;5058733;28;20542;-71
2022/09/10 05:04:25;;;;;;;17.15;7.07;;;;;;;16.32;100.00;100640.75;5066378;28;20037;-71
2022/09/10 05:06:52;;;;;;;12.13;6.03;;;;;;;16.27;100.00;100632.91;5063412;28;20063;-72
2022/09/10 05:09:19;;;;;;;15.40;6.43;;;;;;;16.33;100.00;100636.75;5062327;28;20041;-72
2022/09/10 05:11:46;;;;;;;17.55;7.05;;;;;;;16.33;100.00;100639.56;5066349;28;20048;-72
2022/09/10 05:14:13;;;;;;;16.05;6.80;;;;;;;16.35;100.00;100635.09;5060096;28;20041;-72
2022/09/10 05:16:39;;;;;;;13.85;5.65;;;;;;;16.35;100.00;100634.28;5064411;28;20048;-71
2022/09/10 05:19:06;;;;;;;22.42;8.90;;;;;;;16.39;100.00;100635.78;5055159;28;20045;-72
2022/09/10 05:21:32;;;;;;;15.90;6.20;;;;;;;16.37;100.00;100637.44;5062333;28;20056;-72
2022/09/10 05:23:59;;;;;;;15.43;6.00;;;;;;;16.37;100.00;100637.44;5062598;28;20396;-72
2022/09/10 05:26:26;;;;;;;16.27;6.68;;;;;;;16.41;100.00;100635.34;5053334;28;20130;-72
2022/09/10 05:28:53;;;;;;;15.18;6.75;;;;;;;16.41;100.00;100644.50;5064624;28;20686;-72
2022/09/10 05:31:20;;;;;;;13.60;5.47;;;;;;;16.40;100.00;100653.31;5052951;28;20044;-71
2022/09/10 05:33:47;;;;;;;14.68;6.47;;;;;;;16.37;100.00;100648.63;5063569;28;20127;-72
2022/09/10 05:36:13;;;;;;;17.27;6.53;;;;;;;16.34;100.00;100650.28;5051500;28;20396;-71
2022/09/10 05:38:40;;;;;;;15.73;6.75;;;;;;;16.34;100.00;100653.06;5065867;28;20431;-71
2022/09/10 05:41:10;;;;;;;19.23;7.28;;;;;;;16.29;100.00;100652.78;5054736;28;20145;-71
2022/09/10 05:43:36;;;;;;;19.38;7.22;;;;;;;16.34;100.00;100655.06;5060656;28;20048;-72
2022/09/10 05:46:03;;;;;;;13.27;5.30;;;;;;;16.27;100.00;100650.44;5069246;28;20040;-71
2022/09/10 05:48:30;;;;;;;14.75;6.18;;;;;;;16.24;100.00;100650.53;5056635;28;20045;-71
2022/09/10 05:50:56;;;;;;;17.52;6.32;;;;;;;16.26;100.00;100660.03;5066688;28;20102;-71
2022/09/10 05:53:23;;;;;;;13.52;5.75;;;;;;;16.22;100.00;100661.34;5066562;28;20493;-72
2022/09/10 05:55:49;;;;;;;16.38;5.88;;;;;;;16.22;100.00;100664.13;5070892;28;20102;-71
2022/09/10 05:58:16;;;;;;;12.82;4.32;;;;;;;16.18;100.00;100663.44;5069748;28;20055;-72
2022/09/10 06:00:42;;;;;;;11.15;4.45;;;;;;;16.20;100.00;100667.38;5069045;28;20048;-71
2022/09/10 06:03:09;;;;;;;18.73;7.15;;;;;;;16.24;100.00;100661.72;5069318;28;20049;-71
2022/09/10 06:05:35;;;;;;;17.95;5.88;;;;;;;16.17;100.00;100664.69;5070428;28;20099;-72
2022/09/10 06:08:02;;;;;;;14.85;6.57;;;;;;;16.25;100.00;100664.06;5070432;28;20059;-71
2022/09/10 06:10:34;;;;;;;17.58;7.55;;;;;;;16.27;100.00;100672.00;5070215;28;20045;-71
2022/09/10 06:13:00;;;;;;;18.52;6.85;;;;;;;16.27;100.00;100660.84;5068745;28;20048;-71
2022/09/10 06:15:26;;;;;;;23.17;8.55;;;;;;;16.33;100.00;100673.06;5069885;28;20040;-71
2022/09/10 06:17:55;;;;;;;22.48;7.85;;;;;;;16.30;100.00;100668.34;5068759;28;20400;-71
2022/09/10 06:20:22;;;;;;;17.98;6.97;;;;;;;16.31;100.00;100673.50;5068466;28;20538;-71
2022/09/10 06:22:48;;;;;;;18.17;8.00;;;;;;;16.35;100.00;100679.75;5069814;28;20052;-72
2022/09/10 06:25:15;;;;;;;17.95;9.00;;;;;;;16.37;100.00;100679.34;5068991;28;20055;-72
2022/09/10 06:27:41;;;;;;;16.45;7.55;;;;;;;16.36;100.00;100680.53;5068634;28;20572;-71
2022/09/10 06:30:08;;;;;;;13.52;6.60;;;;;;;16.39;100.00;100679.66;5067394;28;20123;-71
2022/09/10 06:32:35;;;;;;;14.75;6.03;;;;;;;16.43;100.00;100680.41;5063442;28;20048;-71
2022/09/10 06:35:01;;;;;;;14.50;6.82;;;;;;;16.46;100.00;100679.50;5070478;28;20090;-72
2022/09/10 06:37:29;;;;;;;18.10;7.68;;;;;;;16.45;100.00;100686.31;5065461;28;20045;-72
2022/09/10 06:39:55;;;;;;;19.13;7.60;;;;;;;16.51;100.00;100693.75;5064353;28;20048;-72
2022/09/10 06:42:22;;;;;;;14.48;6.75;;;;;;;16.45;100.00;100698.28;5069717;28;20146;-72
2022/09/10 06:44:49;;;;;;;15.30;5.90;;;;;;;16.47;100.00;100703.44;5068226;28;20044;-71
2022/09/10 06:47:15;;;;;;;17.50;6.78;;;;;;;16.50;100.00;100692.16;5064355;28;20094;-70
2022/09/10 06:50:03;;;;;;;21.80;8.68;;;;;;;16.56;100.00;100696.00;5064827;28;20489;-68
2022/09/10 06:52:30;;;;;;;20.48;9.15;;;;;;;16.63;100.00;100701.41;5067448;28;20144;-67
2022/09/10 06:54:56;;;;;;;19.73;7.32;;;;;;;16.57;100.00;100694.00;5060263;28;20055;-68
2022/09/10 06:57:25;;;;;;;15.32;5.55;;;;;;;16.52;100.00;100694.53;5068674;28;20044;-68
2022/09/10 06:59:52;;;;;;;23.48;7.82;;;;;;;16.64;100.00;100705.75;5068038;28;20044;-68
2022/09/10 07:02:18;;;;;;;18.02;7.72;;;;;;;16.64;100.00;100699.41;5068577;28;20048;-68
2022/09/10 07:04:45;;;;;;;15.65;6.30;;;;;;;16.62;100.00;100696.25;5067967;28;20480;-68
2022/09/10 07:07:11;;;;;;;13.35;5.80;;;;;;;16.65;100.00;100703.75;5069028;28;20089;-67
2022/09/10 07:09:38;;;;;;;19.02;7.97;;;;;;;16.65;100.00;100689.78;5050992;28;20438;-67
2022/09/10 07:12:05;;;;;;;18.65;7.50;;;;;;;16.68;100.00;100695.31;5073900;28;20056;-67
2022/09/10 07:14:32;;;;;;;21.02;9.18;;;;;;;16.70;100.00;100700.44;5066108;28;20036;-68
2022/09/10 07:16:58;;;;;;;20.52;9.40;;;;;;;16.72;100.00;100703.56;5064232;28;20040;-68
2022/09/10 07:19:25;;;;;;;19.77;8.70;;;;;;;16.79;100.00;100708.97;5081661;28;20819;-67
2022/09/10 07:21:51;;;;;;;19.60;7.97;;;;;;;16.76;100.00;100702.25;5065749;28;20040;-68
2022/09/10 07:24:18;;;;;;;15.73;6.78;;;;;;;16.82;100.00;100708.91;5064558;28;20573;-68
2022/09/10 07:26:45;;;;;;;17.27;7.15;;;;;;;16.86;100.00;100714.38;5062550;28;20140;-68
2022/09/10 07:29:12;;;;;;;16.25;6.72;;;;;;;16.84;100.00;100711.25;5067199;28;20056;-68
2022/09/10 07:31:40;;;;;;;17.23;6.53;;;;;;;16.88;100.00;100707.13;5063763;28;20051;-68
2022/09/10 07:34:07;;;;;;;18.35;6.50;;;;;;;16.87;100.00;100711.13;5062161;28;20044;-69
2022/09/10 07:36:33;;;;;;;18.67;7.35;;;;;;;16.86;100.00;100717.97;5062386;28;20060;-70
2022/09/10 07:39:00;;;;;;;10.88;3.30;;;;;;;16.83;100.00;100721.63;5061909;28;20451;-68
2022/09/10 07:41:28;;;;;;;20.33;7.45;;;;;;;16.91;100.00;100717.41;5059680;28;20083;-68
2022/09/10 07:43:56;;;;;;;6.80;3.08;;;;;;;16.97;100.00;100720.47;5059620;28;20052;-68
2022/09/10 07:46:24;;;;;;;17.83;8.25;;;;;;;17.08;100.00;100723.78;5061698;28;20044;-69
2022/09/10 07:48:57;;;;;;;18.45;7.57;;;;;;;17.13;100.00;100720.41;5063961;28;20051;-68
2022/09/10 07:51:26;;;;;;;17.10;7.03;;;;;;;17.13;100.00;100726.81;5063074;28;20137;-68
2022/09/10 07:53:54;;;;;;;17.92;7.85;;;;;;;17.19;100.00;100724.25;5063997;28;20489;-68
2022/09/10 07:56:24;;;;;;;17.90;6.95;;;;;;;17.20;100.00;100720.22;5062645;28;20045;-70
2022/09/10 07:58:52;;;;;;;19.30;7.65;;;;;;;17.24;100.00;100730.09;5040460;28;20056;-69
2022/09/10 08:01:19;;;;;;;12.43;5.53;;;;;;;17.20;100.00;100728.59;5041249;28;20048;-68
2022/09/10 08:03:46;;;;;;;20.75;7.97;;;;;;;17.33;100.00;100721.03;5041984;28;20048;-69
2022/09/10 08:06:13;;;;;;;21.45;8.40;;;;;;;17.39;100.00;100728.44;5040748;28;20048;-68
2022/09/10 08:08:40;;;;;;;10.73;3.90;;;;;;;17.29;100.00;100731.56;5040893;28;20052;-69
2022/09/10 08:11:18;;;;;;;22.50;8.27;;;;;;;17.47;100.00;100729.06;5039798;28;20056;-68
2022/09/10 08:13:49;;;;;;;12.02;4.22;;;;;;;17.38;100.00;100726.13;5039478;28;20048;-69
2022/09/10 08:16:25;;;;;;;21.08;7.95;;;;;;;17.44;100.00;100727.16;5041984;28;20055;-70
2022/09/10 08:18:56;;;;;;;15.75;6.32;;;;;;;17.39;100.00;100720.06;5040300;28;20052;-69
2022/09/10 08:21:24;;;;;;;16.05;7.00;;;;;;;17.47;100.00;100726.25;5041002;28;20052;-69
2022/09/10 08:23:53;;;;;;;21.95;8.93;;;;;;;17.49;100.00;100730.19;5038784;28;20059;-69
2022/09/10 08:26:23;;;;;;;12.85;3.33;;;;;;;17.40;100.00;100740.41;5036934;28;20951;-68
2022/09/10 08:28:56;;;;;;;19.27;8.52;;;;;;;17.46;100.00;100735.88;5038595;28;20047;-69
2022/09/10 08:31:25;;;;;;;17.55;7.70;;;;;;;17.40;100.00;100732.81;5036550;28;20052;-65
2022/09/10 08:33:53;;;;;;;19.98;8.93;;;;;;;17.43;100.00;100736.78;5038141;28;20152;-69
2022/09/10 08:36:23;;;;;;;11.85;4.95;;;;;;;17.30;100.00;100733.91;5040133;28;20234;-69
2022/09/10 08:38:50;;;;;;;19.00;9.30;;;;;;;17.39;100.00;100736.06;5041413;28;22233;-69
2022/09/10 08:41:31;;;;;;;18.02;8.40;;;;;;;17.38;100.00;100734.50;5039587;28;20044;-68
2022/09/10 08:44:02;;;;;;;2.50;1.83;;;;;;;17.22;100.00;100738.13;5037166;28;20701;-68
2022/09/10 08:46:33;;;;;;;9.32;4.07;;;;;;;17.24;100.00;100740.47;5039024;28;20056;-69
2022/09/10 08:49:11;;;;;;;17.55;7.63;;;;;;;17.28;100.00;100743.97;5036675;28;20452;-68
2022/09/10 08:51:44;;;;;;;18.83;8.07;;;;;;;17.35;100.00;100729.78;5037426;28;20040;-68
2022/09/10 08:54:20;;;;;;;9.00;3.33;;;;;;;17.27;100.00;100743.19;5037372;28;20044;-70
2022/09/10 08:56:48;;;;;;;18.58;8.88;;;;;;;17.42;100.00;100729.63;5038205;28;20052;-69
2022/09/10 08:59:20;;;;;;;18.88;8.20;;;;;;;17.46;100.00;100741.47;5047303;28;20056;-72
2022/09/10 09:01:59;;;;;;;23.33;8.70;;;;;;;17.54;100.00;100735.25;5050811;28;20184;-69
2022/09/10 09:04:46;;;;;;;11.35;4.88;;;;;;;17.50;100.00;100731.78;5046042;28;20048;-69
2022/09/10 09:07:15;;;;;;;14.60;7.28;;;;;;;17.55;100.00;100742.41;5038422;28;20056;-69
2022/09/10 09:09:42;;;;;;;19.15;8.18;;;;;;;17.68;100.00;100740.41;5042036;28;20061;-69
2022/09/10 09:12:35;;;;;;;22.42;9.98;;;;;;;17.87;100.00;100738.66;5046526;28;20082;-70
2022/09/10 09:15:07;;;;;;;20.23;9.65;;;;;;;17.97;100.00;100737.53;5054857;28;20564;-69
2022/09/10 09:17:50;;;;;;;11.35;4.13;;;;;;;18.01;100.00;100735.41;5055022;28;20048;-70
2022/09/10 09:20:21;;;;;;;18.85;9.23;;;;;;;18.14;100.00;100729.81;5052500;28;20056;-71
2022/09/10 09:23:05;;;;;;;20.50;10.30;;;;;;;18.22;100.00;100720.72;5046341;28;20048;-70
2022/09/10 09:25:42;;;;;;;18.67;8.02;;;;;;;18.18;100.00;100724.88;5041829;28;20052;-70
2022/09/10 09:28:37;;;;;;;17.50;7.72;;;;;;;18.25;100.00;100728.25;5045745;28;20056;-70
2022/09/10 09:31:12;;;;;;;18.23;8.40;;;;;;;18.26;100.00;100723.44;5043967;28;20084;-69
2022/09/10 09:33:40;;;;;;;17.55;8.65;;;;;;;18.24;100.00;100725.88;5046734;28;20052;-68
2022/09/10 09:36:12;;;;;;;18.60;8.07;;;;;;;18.26;100.00;100721.41;5039934;28;20048;-68
2022/09/10 09:38:47;;;;;;;16.77;8.00;;;;;;;18.12;100.00;100721.84;5042598;28;20129;-69
2022/09/10 09:41:27;;;;;;;21.73;8.88;;;;;;;18.22;100.00;100717.16;5038890;28;20056;-69
2022/09/10 09:44:15;;;;;;;19.10;8.07;;;;;;;18.17;100.00;100723.31;5042316;28;20063;-66
2022/09/10 09:46:41;;;;;;;15.60;7.97;;;;;;;18.13;100.00;100717.06;5042572;28;20127;-69
2022/09/10 09:49:15;;;;;;;20.42;8.75;;;;;;;18.12;100.00;100719.06;5042412;28;20060;-68
2022/09/10 09:51:47;;;;;;;20.77;10.73;;;;;;;18.11;100.00;100723.09;5042916;28;20055;-68
2022/09/10 09:54:19;;;;;;;17.70;8.23;;;;;;;18.00;100.00;100723.41;5041957;28;20053;-69
2022/09/10 09:57:15;;;;;;;20.38;8.75;;;;;;;17.94;100.00;100721.63;5042171;28;20867;-69
2022/09/10 09:59:41;;;;;;;21.92;10.02;;;;;;;17.92;100.00;100721.28;5041258;28;20048;-70
2022/09/10 10:02:23;;;;;;;20.27;8.50;;;;;;;17.84;100.00;100723.53;5040959;28;20056;-66
2022/09/10 10:05:20;;;;;;;19.35;8.80;;;;;;;17.75;100.00;100722.63;5038420;28;20056;-69
2022/09/10 10:07:47;;;;;;;8.63;3.83;;;;;;;17.61;100.00;100720.25;5052752;28;20493;-69
2022/09/10 10:10:23;;;;;;;20.98;8.40;;;;;;;17.43;100.00;100706.81;5043818;28;20729;-70
2022/09/10 10:12:52;;;;;;;21.63;9.98;;;;;;;17.45;100.00;100709.16;5043652;28;20053;-69
2022/09/10 10:15:39;;;;;;;16.33;7.13;;;;;;;17.31;100.00;100706.72;5050713;28;20048;-69
2022/09/10 10:18:21;;;;;;;20.10;9.38;;;;;;;17.21;100.00;100703.00;5046685;28;20058;-69
2022/09/10 10:21:09;;;;;;;21.90;9.30;;;;;;;17.24;100.00;100698.53;5049807;28;20408;-68
2022/09/10 10:23:37;;;;;;;13.93;8.18;;;;;;;17.17;100.00;100695.94;5044235;28;20308;-69
2022/09/10 10:26:21;;;;;;;18.67;7.32;;;;;;;17.14;100.00;100699.63;5049502;28;20036;-69
2022/09/10 10:28:58;;;;;;;18.55;8.00;;;;;;;17.15;100.00;100698.41;5041249;28;20056;-68
2022/09/10 10:31:37;;;;;;;16.70;8.60;;;;;;;17.10;100.00;100696.94;5048229;28;20050;-70
2022/09/10 10:34:13;;;;;;;14.23;7.88;;;;;;;17.08;100.00;100693.03;5044717;28;20870;-70
2022/09/10 10:37:05;;;;;;;12.48;5.80;;;;;;;16.96;100.00;100686.16;5041246;28;20143;-69
2022/09/10 10:39:46;;;;;;;17.95;5.70;;;;;;;17.04;100.00;100692.34;5047020;28;20040;-68
2022/09/10 10:42:20;;;;;;;15.15;7.78;;;;;;;17.02;100.00;100691.97;5048236;28;20049;-69
2022/09/10 10:45:05;;;;;;;6.63;3.00;;;;;;;16.97;100.00;100687.72;5044633;28;20048;-69
2022/09/10 10:47:58;;;;;;;12.20;6.45;;;;;;;17.01;100.00;100701.59;5038903;28;20044;-70
2022/09/10 10:50:28;;;;;;;12.82;5.95;;;;;;;16.97;100.00;100700.88;5057307;28;20069;-69
2022/09/10 10:53:15;;;;;;;11.00;5.90;;;;;;;16.97;100.00;100696.09;5039173;28;20059;-70
2022/09/10 10:55:49;;;;;;;11.63;3.70;;;;;;;16.89;100.00;100693.94;5040436;28;20044;-69
2022/09/10 10:58:21;;;;;;;14.05;6.35;;;;;;;16.95;100.00;100697.78;5039272;28;20052;-70
2022/09/10 11:01:00;;;;;;;14.93;6.30;;;;;;;16.95;100.00;100694.97;5055069;28;20063;-69
2022/09/10 11:03:32;;;;;;;9.07;4.65;;;;;;;16.95;100.00;100703.34;5050441;28;20102;-69
2022/09/10 11:06:07;;;;;;;12.23;4.93;;;;;;;16.93;100.00;100705.78;5054311;28;20044;-69
2022/09/10 11:08:38;;;;;;;4.95;2.75;;;;;;;16.91;100.00;100711.81;5053618;28;20064;-69
2022/09/10 11:11:13;;;;;;;15.32;6.95;;;;;;;17.01;100.00;100710.75;5052782;28;20075;-70
2022/09/10 11:13:49;;;;;;;12.80;6.35;;;;;;;17.04;100.00;100709.88;5056500;28;20078;-69
2022/09/10 11:16:18;;;;;;;10.10;5.00;;;;;;;17.06;100.00;100703.84;5047151;28;20051;-69
2022/09/10 11:19:10;;;;;;;15.93;8.25;;;;;;;17.12;100.00;100702.09;5049084;28;20060;-69
2022/09/10 11:21:43;;;;;;;16.30;7.55;;;;;;;17.15;100.00;100699.19;5045550;28;20780;-70
2022/09/10 11:24:14;;;;;;;21.45;11.52;;;;;;;17.21;100.00;100694.63;5051762;28;20053;-68
2022/09/10 11:26:55;;;;;;;21.75;11.68;;;;;;;17.30;100.00;100691.16;5052320;28;20125;-69
2022/09/10 11:29:21;;;;;;;21.15;12.48;;;;;;;17.40;100.00;100698.47;5050673;28;20044;-68